EST,Max TemperatureF,Mean TemperatureF,Min TemperatureF,Max Dew PointF,MeanDew PointF,Min DewpointF,Max Humidity, Mean Humidity, Min Humidity, Max Sea Level PressureIn, Mean Sea Level PressureIn, Min Sea Level PressureIn, Max VisibilityMiles, Mean VisibilityMiles, Min VisibilityMiles, Max Wind SpeedMPH, Mean Wind SpeedMPH, Max Gust SpeedMPH,PrecipitationIn, CloudCover, Events, WindDirDegrees
2013-12-1,39,36,32,34,31,27,89,80,70,30.08,30.05,30.03,10,7,2,13,6,16,T,8,Rain,347
2013-12-2,38,32,26,27,25,23,92,73,54,30.03,29.97,29.92,10,10,8,7,2,8,0.00,6,,80
2013-12-3,34,29,23,32,28,21,92,87,81,29.95,29.91,29.86,10,5,2,16,9,21,0.49,7,Rain-Snow,73
2013-12-4,56,45,33,52,39,32,100,93,86,29.91,29.78,29.55,8,3,0,18,8,24,0.01,8,Fog-Rain,77
2013-12-5,57,43,28,52,32,17,86,69,52,30.14,29.79,29.54,10,10,8,29,18,37,0.00,5,,243
2013-12-6,28,23,17,15,11,9,68,62,55,30.42,30.30,30.16,10,10,10,16,10,21,0.00,2,,282
2013-12-7,23,18,12,11,7,5,70,59,47,30.64,30.56,30.39,10,10,10,17,9,24,0.00,5,,274
2013-12-8,26,19,11,23,14,5,88,73,57,30.62,30.31,29.99,10,6,1,12,6,20,0.09,6,Snow,75
2013-12-9,29,22,14,26,20,3,92,76,59,30.09,29.93,29.82,10,4,0,29,14,35,0.07,7,Snow,229
2013-12-10,18,10,2,12,5,-2,87,68,49,30.17,30.03,29.87,10,9,2,29,13,35,T,4,Snow,232
2013-12-11,19,11,3,10,4,-3,84,66,47,30.45,30.31,30.18,10,10,2,22,10,26,T,2,,259
2013-12-12,20,11,2,15,6,-3,87,77,67,30.45,30.27,30.13,10,7,1,28,12,37,T,7,Snow,225
2013-12-13,23,19,14,18,14,8,84,75,65,30.37,30.22,30.08,10,8,2,21,10,23,0.01,8,Snow,354
2013-12-14,22,18,13,19,15,8,92,85,77,30.35,30.11,29.85,10,3,1,21,13,25,0.30,8,Snow,46
2013-12-15,22,16,10,18,14,3,91,74,56,30.00,29.84,29.76,10,7,2,24,13,30,0.05,7,Snow,261
2013-12-16,17,10,2,9,4,-1,91,72,53,30.23,30.12,30.00,10,9,2,16,6,20,0.02,3,Snow,177
2013-12-17,29,22,14,25,18,10,92,80,68,30.02,29.91,29.80,10,6,0,17,9,21,0.08,8,Snow,215
2013-12-18,28,25,22,22,17,10,88,69,50,30.09,30.00,29.85,10,10,7,21,11,25,T,5,Snow,227
2013-12-19,36,29,22,28,22,12,88,74,60,30.04,29.94,29.81,10,8,2,12,8,15,0.03,2,Rain-Snow,71
2013-12-20,33,31,28,31,29,26,92,89,85,29.94,29.84,29.77,10,6,2,23,14,28,0.12,8,Rain,44
2013-12-21,33,31,28,30,27,25,100,93,85,29.94,29.86,29.76,10,6,1,24,13,32,0.25,8,Snow,31
2013-12-22,32,27,22,29,26,18,92,83,74,30.02,29.75,29.63,10,4,1,31,15,39,0.08,8,Rain-Snow,32
2013-12-23,23,19,14,20,16,8,92,82,71,30.33,30.21,29.99,10,8,2,12,6,13,0.05,7,Snow,322
2013-12-24,16,10,4,7,3,-1,88,71,53,30.56,30.46,30.30,10,10,7,10,7,14,T,3,Snow,289
2013-12-25,24,16,7,21,15,5,88,83,77,30.50,30.23,30.05,10,4,2,20,11,25,0.08,8,Snow,186
2013-12-26,25,23,20,22,19,12,92,80,68,30.26,30.12,29.98,10,6,2,20,9,24,0.07,7,Snow,223
2013-12-27,38,31,23,30,23,18,88,79,70,30.31,30.20,29.98,10,8,5,24,8,32,0.00,7,,230
2013-12-28,43,37,30,31,30,28,92,77,62,30.08,29.98,29.83,10,9,3,22,11,25,0.00,1,,221
2013-12-29,41,29,17,31,21,7,82,72,61,30.05,29.82,29.71,10,10,7,21,13,25,T,6,,296
2013-12-30,17,13,9,7,3,-1,67,59,51,30.30,30.18,30.08,10,10,6,14,6,18,T,6,Snow,246
2013-12-31,16,13,9,10,6,1,88,73,58,30.37,30.17,30.04,10,7,2,26,12,33,0.03,7,Snow,264